sensor_id;sensor_type;location;lat;lon;timestamp;P1;durP1;ratioP1;P2;durP2;ratioP2
20348;SDS011;10332;50.208;18.988;2023-02-28T00:01:31;21.67;;;8.00;;
20348;SDS011;10332;50.208;18.988;2023-02-28T00:04:00;19.33;;;7.43;;
20348;SDS011;10332;50.208;18.988;2023-02-28T00:06:28;15.13;;;6.27;;
20348;SDS011;10332;50.208;18.988;2023-02-28T00:08:56;17.00;;;7.17;;
20348;SDS011;10332;50.208;18.988;2023-02-28T00:11:23;13.90;;;6.90;;
20348;SDS011;10332;50.208;18.988;2023-02-28T00:13:51;15.30;;;6.50;;
20348;SDS011;10332;50.208;18.988;2023-02-28T00:16:19;12.07;;;6.13;;
20348;SDS011;10332;50.208;18.988;2023-02-28T00:18:49;15.90;;;6.53;;
20348;SDS011;10332;50.208;18.988;2023-02-28T00:21:17;12.90;;;6.20;;
20348;SDS011;10332;50.208;18.988;2023-02-28T00:23:46;14.57;;;6.73;;
20348;SDS011;10332;50.208;18.988;2023-02-28T00:26:14;11.40;;;6.07;;
20348;SDS011;10332;50.208;18.988;2023-02-28T00:28:41;13.97;;;5.43;;
20348;SDS011;10332;50.208;18.988;2023-02-28T00:31:09;10.63;;;5.30;;
20348;SDS011;10332;50.208;18.988;2023-02-28T00:33:36;11.20;;;5.73;;
20348;SDS011;10332;50.208;18.988;2023-02-28T00:36:08;11.47;;;5.27;;
20348;SDS011;10332;50.208;18.988;2023-02-28T00:38:38;10.73;;;5.27;;
20348;SDS011;10332;50.208;18.988;2023-02-28T00:41:07;12.13;;;5.90;;
20348;SDS011;10332;50.208;18.988;2023-02-28T00:43:36;11.83;;;5.27;;
20348;SDS011;10332;50.208;18.988;2023-02-28T00:46:06;11.00;;;5.93;;
20348;SDS011;10332;50.208;18.988;2023-02-28T00:48:34;14.13;;;6.20;;
20348;SDS011;10332;50.208;18.988;2023-02-28T00:51:02;12.87;;;6.73;;
20348;SDS011;10332;50.208;18.988;2023-02-28T00:53:30;11.13;;;6.47;;
20348;SDS011;10332;50.208;18.988;2023-02-28T00:55:59;16.13;;;7.60;;
20348;SDS011;10332;50.208;18.988;2023-02-28T00:58:27;16.30;;;7.97;;
20348;SDS011;10332;50.208;18.988;2023-02-28T01:00:54;15.33;;;8.57;;
20348;SDS011;10332;50.208;18.988;2023-02-28T01:03:22;15.10;;;7.23;;
20348;SDS011;10332;50.208;18.988;2023-02-28T01:05:50;14.00;;;7.50;;
20348;SDS011;10332;50.208;18.988;2023-02-28T01:08:19;15.23;;;7.53;;
20348;SDS011;10332;50.208;18.988;2023-02-28T01:10:47;11.93;;;7.07;;
20348;SDS011;10332;50.208;18.988;2023-02-28T01:13:15;11.20;;;6.53;;
20348;SDS011;10332;50.208;18.988;2023-02-28T01:15:45;10.57;;;6.30;;
20348;SDS011;10332;50.208;18.988;2023-02-28T01:18:18;9.57;;;5.60;;
20348;SDS011;10332;50.208;18.988;2023-02-28T01:20:48;12.70;;;6.57;;
20348;SDS011;10332;50.208;18.988;2023-02-28T01:23:15;13.87;;;7.10;;
20348;SDS011;10332;50.208;18.988;2023-02-28T01:25:43;13.75;;;6.95;;
20348;SDS011;10332;50.208;18.988;2023-02-28T01:28:10;18.33;;;8.70;;
20348;SDS011;10332;50.208;18.988;2023-02-28T01:30:38;16.33;;;7.57;;
20348;SDS011;10332;50.208;18.988;2023-02-28T01:33:05;19.97;;;8.30;;
20348;SDS011;10332;50.208;18.988;2023-02-28T01:35:33;12.50;;;6.57;;
20348;SDS011;10332;50.208;18.988;2023-02-28T01:38:02;13.67;;;6.80;;
20348;SDS011;10332;50.208;18.988;2023-02-28T01:40:46;13.57;;;6.50;;
20348;SDS011;10332;50.208;18.988;2023-02-28T01:43:19;10.47;;;6.30;;
20348;SDS011;10332;50.208;18.988;2023-02-28T01:45:55;11.03;;;6.43;;
20348;SDS011;10332;50.208;18.988;2023-02-28T01:48:28;11.63;;;6.47;;
20348;SDS011;10332;50.208;18.988;2023-02-28T01:51:05;12.27;;;6.50;;
20348;SDS011;10332;50.208;18.988;2023-02-28T01:53:49;13.43;;;6.53;;
20348;SDS011;10332;50.208;18.988;2023-02-28T01:56:29;12.20;;;6.33;;
20348;SDS011;10332;50.208;18.988;2023-02-28T01:59:02;13.10;;;6.53;;
20348;SDS011;10332;50.208;18.988;2023-02-28T02:01:31;14.53;;;7.00;;
20348;SDS011;10332;50.208;18.988;2023-02-28T02:03:59;16.00;;;7.17;;
20348;SDS011;10332;50.208;18.988;2023-02-28T02:06:31;16.50;;;7.10;;
20348;SDS011;10332;50.208;18.988;2023-02-28T02:09:06;14.80;;;7.00;;
20348;SDS011;10332;50.208;18.988;2023-02-28T02:11:35;13.77;;;7.17;;
20348;SDS011;10332;50.208;18.988;2023-02-28T02:14:48;12.37;;;6.53;;
20348;SDS011;10332;50.208;18.988;2023-02-28T02:31:10;19.40;;;9.30;;
20348;SDS011;10332;50.208;18.988;2023-02-28T02:34:02;20.77;;;9.83;;
20348;SDS011;10332;50.208;18.988;2023-02-28T02:36:58;22.23;;;9.60;;
20348;SDS011;10332;50.208;18.988;2023-02-28T02:40:17;25.30;;;11.00;;
20348;SDS011;10332;50.208;18.988;2023-02-28T02:45:50;20.93;;;11.10;;
20348;SDS011;10332;50.208;18.988;2023-02-28T02:48:24;27.00;;;12.33;;
20348;SDS011;10332;50.208;18.988;2023-02-28T02:50:58;24.13;;;12.13;;
20348;SDS011;10332;50.208;18.988;2023-02-28T02:53:40;23.00;;;11.50;;
20348;SDS011;10332;50.208;18.988;2023-02-28T02:56:19;22.63;;;10.60;;
20348;SDS011;10332;50.208;18.988;2023-02-28T02:58:53;19.60;;;9.67;;
20348;SDS011;10332;50.208;18.988;2023-02-28T03:01:30;20.83;;;10.60;;
20348;SDS011;10332;50.208;18.988;2023-02-28T03:04:01;17.57;;;9.53;;
20348;SDS011;10332;50.208;18.988;2023-02-28T03:06:41;20.10;;;10.20;;
20348;SDS011;10332;50.208;18.988;2023-02-28T03:09:08;28.03;;;12.80;;
20348;SDS011;10332;50.208;18.988;2023-02-28T03:11:36;25.63;;;12.87;;
20348;SDS011;10332;50.208;18.988;2023-02-28T03:31:36;17.83;;;10.67;;
20348;SDS011;10332;50.208;18.988;2023-02-28T03:36:39;24.30;;;12.30;;
20348;SDS011;10332;50.208;18.988;2023-02-28T03:39:19;23.77;;;12.60;;
20348;SDS011;10332;50.208;18.988;2023-02-28T03:41:58;20.37;;;11.00;;
20348;SDS011;10332;50.208;18.988;2023-02-28T03:44:48;20.50;;;11.37;;
20348;SDS011;10332;50.208;18.988;2023-02-28T03:47:32;23.03;;;12.10;;
20348;SDS011;10332;50.208;18.988;2023-02-28T03:50:15;27.80;;;14.30;;
20348;SDS011;10332;50.208;18.988;2023-02-28T03:53:11;31.40;;;13.97;;
20348;SDS011;10332;50.208;18.988;2023-02-28T03:55:47;26.37;;;12.67;;
20348;SDS011;10332;50.208;18.988;2023-02-28T03:58:29;27.13;;;14.13;;
20348;SDS011;10332;50.208;18.988;2023-02-28T04:01:13;28.70;;;14.60;;
20348;SDS011;10332;50.208;18.988;2023-02-28T04:03:49;26.60;;;14.20;;
20348;SDS011;10332;50.208;18.988;2023-02-28T04:06:18;30.47;;;14.87;;
20348;SDS011;10332;50.208;18.988;2023-02-28T04:08:48;27.50;;;13.47;;
20348;SDS011;10332;50.208;18.988;2023-02-28T04:14:06;32.90;;;15.10;;
20348;SDS011;10332;50.208;18.988;2023-02-28T04:16:37;27.67;;;14.73;;
20348;SDS011;10332;50.208;18.988;2023-02-28T04:19:07;28.10;;;14.70;;
20348;SDS011;10332;50.208;18.988;2023-02-28T04:21:38;29.93;;;14.80;;
20348;SDS011;10332;50.208;18.988;2023-02-28T04:24:12;24.33;;;13.40;;
20348;SDS011;10332;50.208;18.988;2023-02-28T04:26:45;26.03;;;13.93;;
20348;SDS011;10332;50.208;18.988;2023-02-28T04:29:33;25.30;;;12.90;;
20348;SDS011;10332;50.208;18.988;2023-02-28T04:32:02;27.43;;;13.33;;
20348;SDS011;10332;50.208;18.988;2023-02-28T04:34:30;27.57;;;12.97;;
20348;SDS011;10332;50.208;18.988;2023-02-28T04:36:59;26.10;;;12.87;;
20348;SDS011;10332;50.208;18.988;2023-02-28T04:39:39;39.30;;;18.67;;
20348;SDS011;10332;50.208;18.988;2023-02-28T04:42:08;33.87;;;18.37;;
20348;SDS011;10332;50.208;18.988;2023-02-28T04:44:35;41.70;;;22.27;;
20348;SDS011;10332;50.208;18.988;2023-02-28T04:47:03;44.10;;;22.43;;
20348;SDS011;10332;50.208;18.988;2023-02-28T04:49:31;43.07;;;23.00;;
20348;SDS011;10332;50.208;18.988;2023-02-28T04:51:59;41.77;;;20.97;;
20348;SDS011;10332;50.208;18.988;2023-02-28T04:54:26;36.23;;;17.80;;
20348;SDS011;10332;50.208;18.988;2023-02-28T04:56:55;93.73;;;32.50;;
20348;SDS011;10332;50.208;18.988;2023-02-28T04:59:22;58.50;;;25.00;;
20348;SDS011;10332;50.208;18.988;2023-02-28T05:01:50;75.67;;;29.83;;
20348;SDS011;10332;50.208;18.988;2023-02-28T05:04:18;73.93;;;28.77;;
20348;SDS011;10332;50.208;18.988;2023-02-28T05:06:45;51.57;;;22.77;;
20348;SDS011;10332;50.208;18.988;2023-02-28T05:09:13;36.63;;;16.63;;
20348;SDS011;10332;50.208;18.988;2023-02-28T05:11:40;27.63;;;14.73;;
20348;SDS011;10332;50.208;18.988;2023-02-28T05:14:11;28.97;;;15.27;;
20348;SDS011;10332;50.208;18.988;2023-02-28T05:16:41;28.43;;;14.63;;
20348;SDS011;10332;50.208;18.988;2023-02-28T05:19:08;32.30;;;15.77;;
20348;SDS011;10332;50.208;18.988;2023-02-28T05:21:37;35.33;;;16.70;;
20348;SDS011;10332;50.208;18.988;2023-02-28T05:24:18;37.07;;;17.03;;
20348;SDS011;10332;50.208;18.988;2023-02-28T05:26:50;33.17;;;16.47;;
20348;SDS011;10332;50.208;18.988;2023-02-28T05:29:19;32.13;;;16.37;;
20348;SDS011;10332;50.208;18.988;2023-02-28T05:31:48;28.03;;;15.90;;
20348;SDS011;10332;50.208;18.988;2023-02-28T05:34:15;33.30;;;17.17;;
20348;SDS011;10332;50.208;18.988;2023-02-28T05:36:43;37.80;;;19.13;;
20348;SDS011;10332;50.208;18.988;2023-02-28T05:39:10;37.00;;;18.43;;
20348;SDS011;10332;50.208;18.988;2023-02-28T05:41:43;42.53;;;20.57;;
20348;SDS011;10332;50.208;18.988;2023-02-28T05:44:10;61.23;;;24.83;;
20348;SDS011;10332;50.208;18.988;2023-02-28T05:46:39;55.30;;;24.37;;
20348;SDS011;10332;50.208;18.988;2023-02-28T05:49:06;53.80;;;23.23;;
20348;SDS011;10332;50.208;18.988;2023-02-28T05:51:34;70.87;;;27.33;;
20348;SDS011;10332;50.208;18.988;2023-02-28T05:54:02;64.20;;;26.57;;
20348;SDS011;10332;50.208;18.988;2023-02-28T05:56:30;57.80;;;23.77;;
20348;SDS011;10332;50.208;18.988;2023-02-28T05:59:01;53.27;;;24.07;;
20348;SDS011;10332;50.208;18.988;2023-02-28T06:01:46;45.80;;;21.43;;
20348;SDS011;10332;50.208;18.988;2023-02-28T06:04:18;38.93;;;19.67;;
20348;SDS011;10332;50.208;18.988;2023-02-28T06:06:57;38.57;;;18.17;;
20348;SDS011;10332;50.208;18.988;2023-02-28T06:09:25;37.00;;;17.07;;
20348;SDS011;10332;50.208;18.988;2023-02-28T06:11:53;30.53;;;17.47;;
20348;SDS011;10332;50.208;18.988;2023-02-28T06:14:20;34.53;;;17.90;;
20348;SDS011;10332;50.208;18.988;2023-02-28T06:16:48;33.37;;;16.73;;
20348;SDS011;10332;50.208;18.988;2023-02-28T06:19:15;34.90;;;19.00;;
20348;SDS011;10332;50.208;18.988;2023-02-28T06:21:43;39.70;;;20.23;;
20348;SDS011;10332;50.208;18.988;2023-02-28T06:24:11;45.73;;;22.03;;
20348;SDS011;10332;50.208;18.988;2023-02-28T06:26:39;48.07;;;22.87;;
20348;SDS011;10332;50.208;18.988;2023-02-28T06:29:07;47.33;;;21.83;;
20348;SDS011;10332;50.208;18.988;2023-02-28T06:31:34;44.80;;;21.47;;
20348;SDS011;10332;50.208;18.988;2023-02-28T06:34:02;37.90;;;18.50;;
20348;SDS011;10332;50.208;18.988;2023-02-28T06:36:29;37.47;;;18.33;;
20348;SDS011;10332;50.208;18.988;2023-02-28T06:38:57;38.00;;;17.73;;
20348;SDS011;10332;50.208;18.988;2023-02-28T06:41:25;33.97;;;17.70;;
20348;SDS011;10332;50.208;18.988;2023-02-28T06:43:54;39.13;;;19.20;;
20348;SDS011;10332;50.208;18.988;2023-02-28T06:46:22;47.83;;;21.70;;
20348;SDS011;10332;50.208;18.988;2023-02-28T06:48:50;50.60;;;24.47;;
20348;SDS011;10332;50.208;18.988;2023-02-28T06:51:18;46.90;;;22.53;;
20348;SDS011;10332;50.208;18.988;2023-02-28T06:53:48;46.37;;;23.27;;
20348;SDS011;10332;50.208;18.988;2023-02-28T06:56:17;47.87;;;24.20;;
20348;SDS011;10332;50.208;18.988;2023-02-28T06:58:47;50.57;;;24.50;;
20348;SDS011;10332;50.208;18.988;2023-02-28T07:01:17;46.77;;;22.30;;
20348;SDS011;10332;50.208;18.988;2023-02-28T07:03:45;48.07;;;23.17;;
20348;SDS011;10332;50.208;18.988;2023-02-28T07:06:19;45.63;;;23.27;;
20348;SDS011;10332;50.208;18.988;2023-02-28T07:08:51;42.70;;;22.60;;
20348;SDS011;10332;50.208;18.988;2023-02-28T07:11:22;39.63;;;21.43;;
20348;SDS011;10332;50.208;18.988;2023-02-28T07:13:53;46.17;;;20.83;;
20348;SDS011;10332;50.208;18.988;2023-02-28T07:16:22;42.20;;;20.83;;
20348;SDS011;10332;50.208;18.988;2023-02-28T07:18:52;37.93;;;19.40;;
20348;SDS011;10332;50.208;18.988;2023-02-28T07:21:21;38.87;;;20.77;;
20348;SDS011;10332;50.208;18.988;2023-02-28T07:23:49;39.57;;;19.90;;
20348;SDS011;10332;50.208;18.988;2023-02-28T07:26:18;39.60;;;19.17;;
20348;SDS011;10332;50.208;18.988;2023-02-28T07:28:47;36.67;;;18.43;;
20348;SDS011;10332;50.208;18.988;2023-02-28T07:31:16;35.60;;;18.03;;
20348;SDS011;10332;50.208;18.988;2023-02-28T07:33:45;37.13;;;18.37;;
20348;SDS011;10332;50.208;18.988;2023-02-28T07:36:14;35.33;;;17.83;;
20348;SDS011;10332;50.208;18.988;2023-02-28T07:38:46;33.30;;;17.80;;
20348;SDS011;10332;50.208;18.988;2023-02-28T07:41:17;33.47;;;16.63;;
20348;SDS011;10332;50.208;18.988;2023-02-28T07:43:47;29.53;;;15.90;;
20348;SDS011;10332;50.208;18.988;2023-02-28T07:46:15;33.10;;;16.90;;
20348;SDS011;10332;50.208;18.988;2023-02-28T07:48:44;37.77;;;17.27;;
20348;SDS011;10332;50.208;18.988;2023-02-28T07:51:12;29.93;;;16.73;;
20348;SDS011;10332;50.208;18.988;2023-02-28T07:53:39;33.27;;;16.77;;
20348;SDS011;10332;50.208;18.988;2023-02-28T07:56:07;31.37;;;17.00;;
20348;SDS011;10332;50.208;18.988;2023-02-28T07:58:35;31.93;;;16.27;;
20348;SDS011;10332;50.208;18.988;2023-02-28T08:01:06;28.33;;;14.63;;
20348;SDS011;10332;50.208;18.988;2023-02-28T08:03:36;26.20;;;14.07;;
20348;SDS011;10332;50.208;18.988;2023-02-28T08:06:07;28.27;;;15.30;;
20348;SDS011;10332;50.208;18.988;2023-02-28T08:08:43;28.57;;;14.17;;
20348;SDS011;10332;50.208;18.988;2023-02-28T08:11:11;23.17;;;13.27;;
20348;SDS011;10332;50.208;18.988;2023-02-28T08:13:38;23.92;;;13.32;;
20348;SDS011;10332;50.208;18.988;2023-02-28T08:16:06;24.83;;;14.07;;
20348;SDS011;10332;50.208;18.988;2023-02-28T08:18:33;26.67;;;14.02;;
20348;SDS011;10332;50.208;18.988;2023-02-28T08:21:20;25.90;;;14.90;;
20348;SDS011;10332;50.208;18.988;2023-02-28T08:23:48;25.30;;;14.35;;
20348;SDS011;10332;50.208;18.988;2023-02-28T08:26:17;27.25;;;14.70;;
20348;SDS011;10332;50.208;18.988;2023-02-28T08:28:46;27.60;;;14.48;;
20348;SDS011;10332;50.208;18.988;2023-02-28T08:31:14;28.25;;;14.98;;
20348;SDS011;10332;50.208;18.988;2023-02-28T08:33:43;26.17;;;14.18;;
20348;SDS011;10332;50.208;18.988;2023-02-28T08:36:16;28.45;;;14.77;;
20348;SDS011;10332;50.208;18.988;2023-02-28T08:38:44;29.23;;;15.60;;
20348;SDS011;10332;50.208;18.988;2023-02-28T08:41:12;23.77;;;14.23;;
20348;SDS011;10332;50.208;18.988;2023-02-28T08:43:40;24.50;;;13.55;;
20348;SDS011;10332;50.208;18.988;2023-02-28T08:46:08;23.90;;;13.48;;
20348;SDS011;10332;50.208;18.988;2023-02-28T08:48:39;23.55;;;12.20;;
20348;SDS011;10332;50.208;18.988;2023-02-28T08:51:09;21.65;;;12.63;;
20348;SDS011;10332;50.208;18.988;2023-02-28T08:53:43;19.80;;;11.65;;
20348;SDS011;10332;50.208;18.988;2023-02-28T08:56:13;15.68;;;9.68;;
20348;SDS011;10332;50.208;18.988;2023-02-28T08:58:43;19.05;;;11.40;;
20348;SDS011;10332;50.208;18.988;2023-02-28T09:01:19;22.05;;;12.73;;
20348;SDS011;10332;50.208;18.988;2023-02-28T09:03:50;18.63;;;10.95;;
20348;SDS011;10332;50.208;18.988;2023-02-28T09:06:19;22.30;;;11.82;;
20348;SDS011;10332;50.208;18.988;2023-02-28T09:08:49;18.58;;;10.25;;
20348;SDS011;10332;50.208;18.988;2023-02-28T09:11:19;20.55;;;9.88;;
20348;SDS011;10332;50.208;18.988;2023-02-28T09:13:46;16.92;;;10.27;;
20348;SDS011;10332;50.208;18.988;2023-02-28T09:16:15;16.58;;;9.65;;
20348;SDS011;10332;50.208;18.988;2023-02-28T09:18:44;18.45;;;8.45;;
20348;SDS011;10332;50.208;18.988;2023-02-28T09:21:13;14.57;;;8.57;;
20348;SDS011;10332;50.208;18.988;2023-02-28T09:23:44;13.63;;;8.13;;
20348;SDS011;10332;50.208;18.988;2023-02-28T09:26:18;15.02;;;9.15;;
20348;SDS011;10332;50.208;18.988;2023-02-28T09:28:51;12.95;;;7.47;;
20348;SDS011;10332;50.208;18.988;2023-02-28T09:31:24;11.40;;;7.18;;
20348;SDS011;10332;50.208;18.988;2023-02-28T09:33:55;13.23;;;7.78;;
20348;SDS011;10332;50.208;18.988;2023-02-28T09:36:24;12.45;;;8.07;;
20348;SDS011;10332;50.208;18.988;2023-02-28T09:39:09;14.02;;;7.70;;
20348;SDS011;10332;50.208;18.988;2023-02-28T09:41:44;17.45;;;9.35;;
20348;SDS011;10332;50.208;18.988;2023-02-28T09:47:32;14.00;;;8.38;;
20348;SDS011;10332;50.208;18.988;2023-02-28T09:52:53;15.32;;;9.00;;
20348;SDS011;10332;50.208;18.988;2023-02-28T09:55:29;13.48;;;9.05;;
20348;SDS011;10332;50.208;18.988;2023-02-28T09:58:21;14.15;;;8.52;;
20348;SDS011;10332;50.208;18.988;2023-02-28T10:07:21;13.57;;;8.63;;
20348;SDS011;10332;50.208;18.988;2023-02-28T10:11:00;13.48;;;8.68;;
20348;SDS011;10332;50.208;18.988;2023-02-28T10:13:16;11.88;;;9.05;;
20348;SDS011;10332;50.208;18.988;2023-02-28T10:15:55;11.18;;;7.97;;
20348;SDS011;10332;50.208;18.988;2023-02-28T10:18:42;11.95;;;7.68;;
20348;SDS011;10332;50.208;18.988;2023-02-28T10:21:21;10.38;;;7.95;;
20348;SDS011;10332;50.208;18.988;2023-02-28T10:24:03;11.65;;;8.02;;
20348;SDS011;10332;50.208;18.988;2023-02-28T10:27:01;11.93;;;8.30;;
20348;SDS011;10332;50.208;18.988;2023-02-28T10:29:43;10.80;;;8.40;;
20348;SDS011;10332;50.208;18.988;2023-02-28T10:32:22;10.30;;;8.40;;
20348;SDS011;10332;50.208;18.988;2023-02-28T10:34:57;11.10;;;8.43;;
20348;SDS011;10332;50.208;18.988;2023-02-28T10:37:33;10.23;;;8.38;;
20348;SDS011;10332;50.208;18.988;2023-02-28T10:40:25;11.13;;;8.35;;
20348;SDS011;10332;50.208;18.988;2023-02-28T10:48:40;10.25;;;7.97;;
20348;SDS011;10332;50.208;18.988;2023-02-28T10:51:15;10.05;;;8.50;;
20348;SDS011;10332;50.208;18.988;2023-02-28T10:56:28;11.95;;;9.85;;
20348;SDS011;10332;50.208;18.988;2023-02-28T10:59:02;13.55;;;10.80;;
20348;SDS011;10332;50.208;18.988;2023-02-28T11:01:42;12.77;;;9.90;;
20348;SDS011;10332;50.208;18.988;2023-02-28T11:04:19;12.55;;;10.02;;
20348;SDS011;10332;50.208;18.988;2023-02-28T11:06:57;12.20;;;9.88;;
20348;SDS011;10332;50.208;18.988;2023-02-28T11:09:56;11.63;;;9.43;;
20348;SDS011;10332;50.208;18.988;2023-02-28T11:12:29;14.23;;;10.15;;
20348;SDS011;10332;50.208;18.988;2023-02-28T11:15:23;12.68;;;9.60;;
20348;SDS011;10332;50.208;18.988;2023-02-28T11:20:51;14.50;;;10.60;;
20348;SDS011;10332;50.208;18.988;2023-02-28T11:23:23;12.82;;;9.82;;
20348;SDS011;10332;50.208;18.988;2023-02-28T11:25:56;12.10;;;8.68;;
20348;SDS011;10332;50.208;18.988;2023-02-28T11:28:28;11.82;;;8.90;;
20348;SDS011;10332;50.208;18.988;2023-02-28T11:31:03;12.88;;;10.20;;
20348;SDS011;10332;50.208;18.988;2023-02-28T11:33:53;19.05;;;14.55;;
20348;SDS011;10332;50.208;18.988;2023-02-28T11:39:01;26.48;;;23.63;;
20348;SDS011;10332;50.208;18.988;2023-02-28T11:55:35;10.95;;;9.65;;
20348;SDS011;10332;50.208;18.988;2023-02-28T12:07:14;9.88;;;8.57;;
20348;SDS011;10332;50.208;18.988;2023-02-28T12:15:53;10.63;;;9.50;;
20348;SDS011;10332;50.208;18.988;2023-02-28T12:27:35;13.23;;;11.40;;
20348;SDS011;10332;50.208;18.988;2023-02-28T12:33:01;13.63;;;10.13;;
20348;SDS011;10332;50.208;18.988;2023-02-28T12:38:29;12.63;;;10.13;;
20348;SDS011;10332;50.208;18.988;2023-02-28T12:41:31;12.68;;;10.25;;
20348;SDS011;10332;50.208;18.988;2023-02-28T12:44:14;17.02;;;10.38;;
20348;SDS011;10332;50.208;18.988;2023-02-28T12:46:58;14.05;;;11.02;;
20348;SDS011;10332;50.208;18.988;2023-02-28T12:49:45;11.18;;;9.95;;
20348;SDS011;10332;50.208;18.988;2023-02-28T12:52:27;12.27;;;10.10;;
20348;SDS011;10332;50.208;18.988;2023-02-28T13:01:24;11.20;;;9.60;;
20348;SDS011;10332;50.208;18.988;2023-02-28T13:05:07;10.32;;;9.23;;
20348;SDS011;10332;50.208;18.988;2023-02-28T13:10:13;13.35;;;10.32;;
20348;SDS011;10332;50.208;18.988;2023-02-28T13:12:50;11.52;;;10.32;;
20348;SDS011;10332;50.208;18.988;2023-02-28T13:15:22;14.73;;;11.23;;
20348;SDS011;10332;50.208;18.988;2023-02-28T13:17:56;10.20;;;9.20;;
20348;SDS011;10332;50.208;18.988;2023-02-28T13:20:27;12.63;;;10.48;;
20348;SDS011;10332;50.208;18.988;2023-02-28T13:23:02;11.60;;;9.90;;
20348;SDS011;10332;50.208;18.988;2023-02-28T13:28:09;12.05;;;9.70;;
20348;SDS011;10332;50.208;18.988;2023-02-28T13:38:43;12.38;;;10.18;;
20348;SDS011;10332;50.208;18.988;2023-02-28T13:41:53;12.02;;;10.30;;
20348;SDS011;10332;50.208;18.988;2023-02-28T13:51:50;13.80;;;10.15;;
20348;SDS011;10332;50.208;18.988;2023-02-28T13:57:28;12.35;;;9.13;;
20348;SDS011;10332;50.208;18.988;2023-02-28T14:03:07;9.65;;;8.60;;
20348;SDS011;10332;50.208;18.988;2023-02-28T14:05:47;10.35;;;8.02;;
20348;SDS011;10332;50.208;18.988;2023-02-28T14:08:52;11.38;;;9.32;;
20348;SDS011;10332;50.208;18.988;2023-02-28T14:11:31;9.68;;;8.55;;
20348;SDS011;10332;50.208;18.988;2023-02-28T14:14:03;10.98;;;9.18;;
20348;SDS011;10332;50.208;18.988;2023-02-28T14:16:37;14.43;;;11.00;;
20348;SDS011;10332;50.208;18.988;2023-02-28T14:19:12;11.80;;;10.10;;
20348;SDS011;10332;50.208;18.988;2023-02-28T14:32:33;12.32;;;9.27;;
20348;SDS011;10332;50.208;18.988;2023-02-28T14:35:14;14.30;;;10.80;;
20348;SDS011;10332;50.208;18.988;2023-02-28T14:38:19;12.60;;;10.07;;
20348;SDS011;10332;50.208;18.988;2023-02-28T14:40:55;12.77;;;9.68;;
20348;SDS011;10332;50.208;18.988;2023-02-28T14:43:27;14.30;;;10.75;;
20348;SDS011;10332;50.208;18.988;2023-02-28T14:45:57;15.30;;;11.27;;
20348;SDS011;10332;50.208;18.988;2023-02-28T14:48:28;14.27;;;11.27;;
20348;SDS011;10332;50.208;18.988;2023-02-28T14:50:57;13.70;;;10.23;;
20348;SDS011;10332;50.208;18.988;2023-02-28T14:53:28;23.20;;;16.38;;
20348;SDS011;10332;50.208;18.988;2023-02-28T14:56:03;21.80;;;16.08;;
20348;SDS011;10332;50.208;18.988;2023-02-28T14:58:33;23.60;;;16.85;;
20348;SDS011;10332;50.208;18.988;2023-02-28T15:01:02;21.70;;;16.33;;
20348;SDS011;10332;50.208;18.988;2023-02-28T15:03:38;21.75;;;16.58;;
20348;SDS011;10332;50.208;18.988;2023-02-28T15:06:15;23.70;;;16.90;;
20348;SDS011;10332;50.208;18.988;2023-02-28T15:08:45;25.83;;;17.52;;
20348;SDS011;10332;50.208;18.988;2023-02-28T15:11:13;24.95;;;17.42;;
20348;SDS011;10332;50.208;18.988;2023-02-28T15:13:50;26.65;;;18.10;;
20348;SDS011;10332;50.208;18.988;2023-02-28T15:16:29;24.40;;;16.38;;
20348;SDS011;10332;50.208;18.988;2023-02-28T15:19:16;26.67;;;17.13;;
20348;SDS011;10332;50.208;18.988;2023-02-28T15:22:01;33.58;;;20.98;;
20348;SDS011;10332;50.208;18.988;2023-02-28T15:27:15;20.63;;;13.50;;
20348;SDS011;10332;50.208;18.988;2023-02-28T15:29:56;22.50;;;13.88;;
20348;SDS011;10332;50.208;18.988;2023-02-28T15:32:35;16.27;;;12.05;;
20348;SDS011;10332;50.208;18.988;2023-02-28T15:35:27;17.95;;;11.90;;
20348;SDS011;10332;50.208;18.988;2023-02-28T15:40:52;17.83;;;12.40;;
20348;SDS011;10332;50.208;18.988;2023-02-28T15:43:24;17.67;;;12.15;;
20348;SDS011;10332;50.208;18.988;2023-02-28T15:48:38;26.00;;;15.57;;
20348;SDS011;10332;50.208;18.988;2023-02-28T15:51:16;30.02;;;17.13;;
20348;SDS011;10332;50.208;18.988;2023-02-28T15:53:51;23.42;;;13.88;;
20348;SDS011;10332;50.208;18.988;2023-02-28T15:56:27;22.98;;;14.32;;
20348;SDS011;10332;50.208;18.988;2023-02-28T15:58:59;23.90;;;14.05;;
20348;SDS011;10332;50.208;18.988;2023-02-28T16:01:33;20.88;;;12.98;;
20348;SDS011;10332;50.208;18.988;2023-02-28T16:04:26;20.63;;;12.55;;
20348;SDS011;10332;50.208;18.988;2023-02-28T16:09:29;33.38;;;18.80;;
20348;SDS011;10332;50.208;18.988;2023-02-28T16:12:01;33.72;;;19.30;;
20348;SDS011;10332;50.208;18.988;2023-02-28T16:14:30;62.13;;;31.30;;
20348;SDS011;10332;50.208;18.988;2023-02-28T16:17:06;59.88;;;29.95;;
20348;SDS011;10332;50.208;18.988;2023-02-28T16:19:45;56.75;;;29.48;;
20348;SDS011;10332;50.208;18.988;2023-02-28T16:22:13;42.25;;;23.38;;
20348;SDS011;10332;50.208;18.988;2023-02-28T16:24:41;33.85;;;17.98;;
20348;SDS011;10332;50.208;18.988;2023-02-28T16:27:16;33.65;;;16.23;;
20348;SDS011;10332;50.208;18.988;2023-02-28T16:30:00;24.58;;;13.40;;
20348;SDS011;10332;50.208;18.988;2023-02-28T16:32:28;20.88;;;11.93;;
20348;SDS011;10332;50.208;18.988;2023-02-28T16:34:58;17.92;;;10.35;;
20348;SDS011;10332;50.208;18.988;2023-02-28T16:37:26;17.38;;;10.40;;
20348;SDS011;10332;50.208;18.988;2023-02-28T16:39:54;17.35;;;10.02;;
20348;SDS011;10332;50.208;18.988;2023-02-28T16:42:23;15.85;;;9.85;;
20348;SDS011;10332;50.208;18.988;2023-02-28T16:44:55;16.77;;;10.32;;
20348;SDS011;10332;50.208;18.988;2023-02-28T16:47:23;15.75;;;9.55;;
20348;SDS011;10332;50.208;18.988;2023-02-28T16:49:53;17.48;;;10.00;;
20348;SDS011;10332;50.208;18.988;2023-02-28T16:52:20;17.02;;;11.07;;
20348;SDS011;10332;50.208;18.988;2023-02-28T16:54:48;16.88;;;10.65;;
20348;SDS011;10332;50.208;18.988;2023-02-28T16:57:20;18.25;;;11.43;;
20348;SDS011;10332;50.208;18.988;2023-02-28T16:59:51;19.08;;;10.93;;
20348;SDS011;10332;50.208;18.988;2023-02-28T17:02:19;18.80;;;10.60;;
20348;SDS011;10332;50.208;18.988;2023-02-28T17:04:47;20.35;;;12.00;;
20348;SDS011;10332;50.208;18.988;2023-02-28T17:07:15;25.30;;;13.65;;
20348;SDS011;10332;50.208;18.988;2023-02-28T17:09:44;27.52;;;13.95;;
20348;SDS011;10332;50.208;18.988;2023-02-28T17:12:12;23.63;;;14.25;;
20348;SDS011;10332;50.208;18.988;2023-02-28T17:14:40;25.90;;;14.00;;
20348;SDS011;10332;50.208;18.988;2023-02-28T17:17:10;24.33;;;13.35;;
20348;SDS011;10332;50.208;18.988;2023-02-28T17:19:47;22.40;;;12.57;;
20348;SDS011;10332;50.208;18.988;2023-02-28T17:22:15;20.92;;;11.63;;
20348;SDS011;10332;50.208;18.988;2023-02-28T17:24:42;21.80;;;11.73;;
20348;SDS011;10332;50.208;18.988;2023-02-28T17:27:12;27.85;;;15.05;;
20348;SDS011;10332;50.208;18.988;2023-02-28T17:29:39;33.05;;;16.05;;
20348;SDS011;10332;50.208;18.988;2023-02-28T17:32:08;40.47;;;18.70;;
20348;SDS011;10332;50.208;18.988;2023-02-28T17:34:43;38.88;;;18.67;;